sensor_id;sensor_type;location;lat;lon;timestamp;P1;durP1;ratioP1;P2;durP2;ratioP2
39208;SDS011;24929;51.982;4.664;2022-08-19T00:01:25;9.45;;;8.18;;
39208;SDS011;24929;51.982;4.664;2022-08-19T00:03:52;10.40;;;7.55;;
39208;SDS011;24929;51.982;4.664;2022-08-19T00:06:17;8.73;;;7.63;;
39208;SDS011;24929;51.982;4.664;2022-08-19T00:08:43;8.30;;;7.45;;
39208;SDS011;24929;51.982;4.664;2022-08-19T00:11:08;11.05;;;7.68;;
39208;SDS011;24929;51.982;4.664;2022-08-19T00:13:34;10.90;;;8.75;;
39208;SDS011;24929;51.982;4.664;2022-08-19T00:16:00;8.30;;;7.43;;
39208;SDS011;24929;51.982;4.664;2022-08-19T00:18:26;11.38;;;8.45;;
39208;SDS011;24929;51.982;4.664;2022-08-19T00:20:51;9.63;;;8.20;;
39208;SDS011;24929;51.982;4.664;2022-08-19T00:23:18;9.00;;;8.10;;
39208;SDS011;24929;51.982;4.664;2022-08-19T00:25:43;10.35;;;9.25;;
39208;SDS011;24929;51.982;4.664;2022-08-19T00:28:09;11.23;;;9.57;;
39208;SDS011;24929;51.982;4.664;2022-08-19T00:30:34;10.85;;;9.60;;
39208;SDS011;24929;51.982;4.664;2022-08-19T00:33:00;10.80;;;9.70;;
39208;SDS011;24929;51.982;4.664;2022-08-19T00:35:25;11.60;;;8.95;;
39208;SDS011;24929;51.982;4.664;2022-08-19T00:37:52;8.98;;;8.07;;
39208;SDS011;24929;51.982;4.664;2022-08-19T00:40:18;10.38;;;7.35;;
39208;SDS011;24929;51.982;4.664;2022-08-19T00:42:45;9.40;;;8.35;;
39208;SDS011;24929;51.982;4.664;2022-08-19T00:45:13;8.73;;;7.30;;
39208;SDS011;24929;51.982;4.664;2022-08-19T00:47:42;7.70;;;6.93;;
39208;SDS011;24929;51.982;4.664;2022-08-19T00:50:08;9.18;;;6.85;;
39208;SDS011;24929;51.982;4.664;2022-08-19T00:52:35;7.78;;;7.00;;
39208;SDS011;24929;51.982;4.664;2022-08-19T00:55:07;9.82;;;7.13;;
39208;SDS011;24929;51.982;4.664;2022-08-19T00:57:37;10.85;;;8.02;;
39208;SDS011;24929;51.982;4.664;2022-08-19T01:00:08;10.25;;;7.78;;
39208;SDS011;24929;51.982;4.664;2022-08-19T01:02:37;6.82;;;6.15;;
39208;SDS011;24929;51.982;4.664;2022-08-19T01:05:04;9.77;;;7.43;;
39208;SDS011;24929;51.982;4.664;2022-08-19T01:07:33;7.47;;;6.45;;
39208;SDS011;24929;51.982;4.664;2022-08-19T01:09:59;7.20;;;6.50;;
39208;SDS011;24929;51.982;4.664;2022-08-19T01:12:26;9.18;;;6.93;;
39208;SDS011;24929;51.982;4.664;2022-08-19T01:14:52;7.82;;;6.00;;
39208;SDS011;24929;51.982;4.664;2022-08-19T01:17:17;8.90;;;6.60;;
39208;SDS011;24929;51.982;4.664;2022-08-19T01:19:46;7.40;;;6.60;;
39208;SDS011;24929;51.982;4.664;2022-08-19T01:25:02;7.70;;;6.97;;
39208;SDS011;24929;51.982;4.664;2022-08-19T01:27:36;11.52;;;6.47;;
39208;SDS011;24929;51.982;4.664;2022-08-19T01:30:06;9.05;;;7.60;;
39208;SDS011;24929;51.982;4.664;2022-08-19T01:32:32;7.55;;;6.80;;
39208;SDS011;24929;51.982;4.664;2022-08-19T01:34:58;8.48;;;6.93;;
39208;SDS011;24929;51.982;4.664;2022-08-19T01:37:26;9.52;;;6.68;;
39208;SDS011;24929;51.982;4.664;2022-08-19T01:39:52;12.50;;;7.10;;
39208;SDS011;24929;51.982;4.664;2022-08-19T01:42:17;7.18;;;6.15;;
39208;SDS011;24929;51.982;4.664;2022-08-19T01:44:43;6.43;;;5.57;;
39208;SDS011;24929;51.982;4.664;2022-08-19T01:47:08;7.45;;;6.72;;
39208;SDS011;24929;51.982;4.664;2022-08-19T01:49:35;7.28;;;6.47;;
39208;SDS011;24929;51.982;4.664;2022-08-19T01:52:01;8.32;;;7.35;;
39208;SDS011;24929;51.982;4.664;2022-08-19T01:54:27;7.68;;;6.88;;
39208;SDS011;24929;51.982;4.664;2022-08-19T01:56:53;7.90;;;7.10;;
39208;SDS011;24929;51.982;4.664;2022-08-19T01:59:22;7.25;;;6.20;;
39208;SDS011;24929;51.982;4.664;2022-08-19T02:01:49;6.22;;;5.63;;
39208;SDS011;24929;51.982;4.664;2022-08-19T02:04:14;7.72;;;6.55;;
39208;SDS011;24929;51.982;4.664;2022-08-19T02:06:40;8.05;;;6.10;;
39208;SDS011;24929;51.982;4.664;2022-08-19T02:09:06;7.78;;;6.50;;
39208;SDS011;24929;51.982;4.664;2022-08-19T02:11:33;11.35;;;8.05;;
39208;SDS011;24929;51.982;4.664;2022-08-19T02:14:01;7.70;;;6.90;;
39208;SDS011;24929;51.982;4.664;2022-08-19T02:16:29;8.68;;;7.82;;
39208;SDS011;24929;51.982;4.664;2022-08-19T02:18:55;8.85;;;7.30;;
39208;SDS011;24929;51.982;4.664;2022-08-19T02:21:22;8.23;;;7.35;;
39208;SDS011;24929;51.982;4.664;2022-08-19T02:23:48;12.02;;;7.72;;
39208;SDS011;24929;51.982;4.664;2022-08-19T02:26:15;8.30;;;7.22;;
39208;SDS011;24929;51.982;4.664;2022-08-19T02:28:41;12.77;;;7.88;;
39208;SDS011;24929;51.982;4.664;2022-08-19T02:31:14;7.75;;;6.97;;
39208;SDS011;24929;51.982;4.664;2022-08-19T02:33:42;13.18;;;7.50;;
39208;SDS011;24929;51.982;4.664;2022-08-19T02:36:08;9.85;;;7.50;;
39208;SDS011;24929;51.982;4.664;2022-08-19T02:38:35;9.45;;;7.30;;
39208;SDS011;24929;51.982;4.664;2022-08-19T02:41:11;8.75;;;6.80;;
39208;SDS011;24929;51.982;4.664;2022-08-19T02:43:39;7.30;;;6.38;;
39208;SDS011;24929;51.982;4.664;2022-08-19T02:46:15;7.47;;;6.75;;
39208;SDS011;24929;51.982;4.664;2022-08-19T02:48:56;9.43;;;8.05;;
39208;SDS011;24929;51.982;4.664;2022-08-19T02:51:25;11.80;;;9.20;;
39208;SDS011;24929;51.982;4.664;2022-08-19T02:53:53;14.93;;;11.43;;
39208;SDS011;24929;51.982;4.664;2022-08-19T02:56:19;11.23;;;9.85;;
39208;SDS011;24929;51.982;4.664;2022-08-19T02:58:46;17.75;;;13.23;;
39208;SDS011;24929;51.982;4.664;2022-08-19T03:01:19;18.90;;;13.55;;
39208;SDS011;24929;51.982;4.664;2022-08-19T03:03:49;20.33;;;14.27;;
39208;SDS011;24929;51.982;4.664;2022-08-19T03:06:15;21.95;;;16.40;;
39208;SDS011;24929;51.982;4.664;2022-08-19T03:08:42;24.10;;;16.83;;
39208;SDS011;24929;51.982;4.664;2022-08-19T03:11:16;25.20;;;16.27;;
39208;SDS011;24929;51.982;4.664;2022-08-19T03:13:47;19.35;;;15.13;;
39208;SDS011;24929;51.982;4.664;2022-08-19T03:16:14;27.23;;;17.63;;
39208;SDS011;24929;51.982;4.664;2022-08-19T03:18:40;24.25;;;16.35;;
39208;SDS011;24929;51.982;4.664;2022-08-19T03:21:05;18.42;;;14.15;;
39208;SDS011;24929;51.982;4.664;2022-08-19T03:23:31;21.30;;;13.57;;
39208;SDS011;24929;51.982;4.664;2022-08-19T03:25:57;15.07;;;10.63;;
39208;SDS011;24929;51.982;4.664;2022-08-19T03:28:23;12.85;;;10.27;;
39208;SDS011;24929;51.982;4.664;2022-08-19T03:31:02;10.02;;;8.35;;
39208;SDS011;24929;51.982;4.664;2022-08-19T03:33:30;14.02;;;8.95;;
39208;SDS011;24929;51.982;4.664;2022-08-19T03:36:00;15.35;;;11.45;;
39208;SDS011;24929;51.982;4.664;2022-08-19T03:38:27;17.92;;;12.43;;
39208;SDS011;24929;51.982;4.664;2022-08-19T03:40:53;24.20;;;14.02;;
39208;SDS011;24929;51.982;4.664;2022-08-19T03:43:18;21.05;;;13.40;;
39208;SDS011;24929;51.982;4.664;2022-08-19T03:45:44;20.40;;;14.20;;
39208;SDS011;24929;51.982;4.664;2022-08-19T03:48:09;18.38;;;14.38;;
39208;SDS011;24929;51.982;4.664;2022-08-19T03:50:38;17.85;;;13.90;;
39208;SDS011;24929;51.982;4.664;2022-08-19T03:53:04;21.15;;;14.85;;
39208;SDS011;24929;51.982;4.664;2022-08-19T03:55:29;19.38;;;14.23;;
39208;SDS011;24929;51.982;4.664;2022-08-19T03:57:55;16.13;;;13.05;;
39208;SDS011;24929;51.982;4.664;2022-08-19T04:00:21;20.77;;;15.23;;
39208;SDS011;24929;51.982;4.664;2022-08-19T04:02:46;21.23;;;14.55;;
39208;SDS011;24929;51.982;4.664;2022-08-19T04:05:12;24.05;;;15.02;;
39208;SDS011;24929;51.982;4.664;2022-08-19T04:07:38;20.88;;;15.95;;
39208;SDS011;24929;51.982;4.664;2022-08-19T04:10:04;23.23;;;17.00;;
39208;SDS011;24929;51.982;4.664;2022-08-19T04:12:30;25.25;;;16.15;;
39208;SDS011;24929;51.982;4.664;2022-08-19T04:14:56;26.25;;;16.60;;
39208;SDS011;24929;51.982;4.664;2022-08-19T04:17:21;22.33;;;15.57;;
39208;SDS011;24929;51.982;4.664;2022-08-19T04:19:47;26.02;;;16.92;;
39208;SDS011;24929;51.982;4.664;2022-08-19T04:22:12;22.60;;;16.17;;
39208;SDS011;24929;51.982;4.664;2022-08-19T04:24:37;26.92;;;17.73;;
39208;SDS011;24929;51.982;4.664;2022-08-19T04:27:03;30.23;;;20.75;;
39208;SDS011;24929;51.982;4.664;2022-08-19T04:29:30;30.70;;;19.90;;
39208;SDS011;24929;51.982;4.664;2022-08-19T04:31:56;29.90;;;21.45;;
39208;SDS011;24929;51.982;4.664;2022-08-19T04:34:24;32.38;;;20.67;;
39208;SDS011;24929;51.982;4.664;2022-08-19T04:36:51;33.65;;;22.48;;
39208;SDS011;24929;51.982;4.664;2022-08-19T04:39:23;42.53;;;23.67;;
39208;SDS011;24929;51.982;4.664;2022-08-19T04:42:12;38.10;;;23.15;;
39208;SDS011;24929;51.982;4.664;2022-08-19T04:44:57;45.30;;;26.50;;
39208;SDS011;24929;51.982;4.664;2022-08-19T04:47:23;50.33;;;27.05;;
39208;SDS011;24929;51.982;4.664;2022-08-19T04:49:49;37.25;;;25.92;;
39208;SDS011;24929;51.982;4.664;2022-08-19T04:52:14;52.03;;;27.90;;
39208;SDS011;24929;51.982;4.664;2022-08-19T04:54:39;43.92;;;26.02;;
39208;SDS011;24929;51.982;4.664;2022-08-19T04:57:05;43.45;;;25.67;;
39208;SDS011;24929;51.982;4.664;2022-08-19T04:59:34;42.78;;;26.35;;
39208;SDS011;24929;51.982;4.664;2022-08-19T05:02:01;44.67;;;26.75;;
39208;SDS011;24929;51.982;4.664;2022-08-19T05:04:27;48.72;;;25.50;;
39208;SDS011;24929;51.982;4.664;2022-08-19T05:06:58;49.80;;;27.20;;
39208;SDS011;24929;51.982;4.664;2022-08-19T05:09:25;47.67;;;26.05;;
39208;SDS011;24929;51.982;4.664;2022-08-19T05:11:50;40.97;;;24.52;;
39208;SDS011;24929;51.982;4.664;2022-08-19T05:14:17;44.53;;;24.80;;
39208;SDS011;24929;51.982;4.664;2022-08-19T05:16:43;38.75;;;23.08;;
39208;SDS011;24929;51.982;4.664;2022-08-19T05:19:08;43.42;;;25.83;;
39208;SDS011;24929;51.982;4.664;2022-08-19T05:21:53;40.28;;;22.70;;
39208;SDS011;24929;51.982;4.664;2022-08-19T05:24:37;40.92;;;24.48;;
39208;SDS011;24929;51.982;4.664;2022-08-19T05:27:03;38.03;;;22.75;;
39208;SDS011;24929;51.982;4.664;2022-08-19T05:29:29;49.92;;;25.10;;
39208;SDS011;24929;51.982;4.664;2022-08-19T05:31:56;41.47;;;22.50;;
39208;SDS011;24929;51.982;4.664;2022-08-19T05:34:23;39.13;;;25.02;;
39208;SDS011;24929;51.982;4.664;2022-08-19T05:36:56;40.30;;;25.02;;
39208;SDS011;24929;51.982;4.664;2022-08-19T05:39:24;40.50;;;24.05;;
39208;SDS011;24929;51.982;4.664;2022-08-19T05:41:53;36.72;;;23.38;;
39208;SDS011;24929;51.982;4.664;2022-08-19T05:44:22;28.45;;;20.35;;
39208;SDS011;24929;51.982;4.664;2022-08-19T05:46:48;42.33;;;25.10;;
39208;SDS011;24929;51.982;4.664;2022-08-19T05:49:14;37.97;;;23.73;;
39208;SDS011;24929;51.982;4.664;2022-08-19T05:51:41;39.92;;;22.88;;
39208;SDS011;24929;51.982;4.664;2022-08-19T05:54:07;27.60;;;20.52;;
39208;SDS011;24929;51.982;4.664;2022-08-19T05:56:34;38.17;;;22.77;;
39208;SDS011;24929;51.982;4.664;2022-08-19T05:59:03;31.77;;;21.35;;
39208;SDS011;24929;51.982;4.664;2022-08-19T06:01:33;39.78;;;21.38;;
39208;SDS011;24929;51.982;4.664;2022-08-19T06:03:59;35.05;;;22.17;;
39208;SDS011;24929;51.982;4.664;2022-08-19T06:06:25;37.35;;;21.08;;
39208;SDS011;24929;51.982;4.664;2022-08-19T06:08:50;33.28;;;22.00;;
39208;SDS011;24929;51.982;4.664;2022-08-19T06:14:00;30.83;;;19.63;;
39208;SDS011;24929;51.982;4.664;2022-08-19T06:16:32;32.25;;;21.05;;
39208;SDS011;24929;51.982;4.664;2022-08-19T06:19:00;35.05;;;21.98;;
39208;SDS011;24929;51.982;4.664;2022-08-19T06:21:28;28.88;;;20.98;;
39208;SDS011;24929;51.982;4.664;2022-08-19T06:23:55;34.22;;;21.33;;
39208;SDS011;24929;51.982;4.664;2022-08-19T06:26:22;30.52;;;20.45;;
39208;SDS011;24929;51.982;4.664;2022-08-19T06:28:48;30.95;;;20.98;;
39208;SDS011;24929;51.982;4.664;2022-08-19T06:31:14;30.58;;;20.10;;
39208;SDS011;24929;51.982;4.664;2022-08-19T06:33:48;30.08;;;19.15;;
39208;SDS011;24929;51.982;4.664;2022-08-19T06:36:18;31.52;;;20.05;;
39208;SDS011;24929;51.982;4.664;2022-08-19T06:38:55;23.40;;;17.10;;
39208;SDS011;24929;51.982;4.664;2022-08-19T06:41:22;26.98;;;19.73;;
39208;SDS011;24929;51.982;4.664;2022-08-19T06:43:48;27.33;;;19.17;;
39208;SDS011;24929;51.982;4.664;2022-08-19T06:46:14;26.83;;;18.77;;
39208;SDS011;24929;51.982;4.664;2022-08-19T06:48:41;24.83;;;17.05;;
39208;SDS011;24929;51.982;4.664;2022-08-19T06:51:06;26.13;;;18.33;;
39208;SDS011;24929;51.982;4.664;2022-08-19T06:53:32;26.90;;;17.17;;
39208;SDS011;24929;51.982;4.664;2022-08-19T06:55:58;27.15;;;16.65;;
39208;SDS011;24929;51.982;4.664;2022-08-19T06:58:30;26.02;;;17.23;;
39208;SDS011;24929;51.982;4.664;2022-08-19T07:01:02;25.30;;;16.15;;
39208;SDS011;24929;51.982;4.664;2022-08-19T07:03:30;21.73;;;14.63;;
39208;SDS011;24929;51.982;4.664;2022-08-19T07:05:57;23.48;;;14.35;;
39208;SDS011;24929;51.982;4.664;2022-08-19T07:08:34;23.60;;;15.52;;
39208;SDS011;24929;51.982;4.664;2022-08-19T07:11:02;21.23;;;15.15;;
39208;SDS011;24929;51.982;4.664;2022-08-19T07:13:32;23.15;;;15.30;;
39208;SDS011;24929;51.982;4.664;2022-08-19T07:18:30;20.80;;;16.50;;
39208;SDS011;24929;51.982;4.664;2022-08-19T07:21:06;18.63;;;16.27;;
39208;SDS011;24929;51.982;4.664;2022-08-19T07:23:34;21.17;;;17.08;;
39208;SDS011;24929;51.982;4.664;2022-08-19T07:26:05;19.80;;;16.05;;
39208;SDS011;24929;51.982;4.664;2022-08-19T07:28:32;20.42;;;16.73;;
39208;SDS011;24929;51.982;4.664;2022-08-19T07:30:57;26.52;;;15.23;;
39208;SDS011;24929;51.982;4.664;2022-08-19T07:33:23;19.85;;;16.48;;
39208;SDS011;24929;51.982;4.664;2022-08-19T07:35:48;21.33;;;14.77;;
39208;SDS011;24929;51.982;4.664;2022-08-19T07:38:14;17.60;;;14.32;;
39208;SDS011;24929;51.982;4.664;2022-08-19T07:40:40;16.17;;;13.73;;
39208;SDS011;24929;51.982;4.664;2022-08-19T07:43:06;21.35;;;14.10;;
39208;SDS011;24929;51.982;4.664;2022-08-19T07:45:31;22.58;;;14.13;;
39208;SDS011;24929;51.982;4.664;2022-08-19T07:47:57;19.33;;;12.20;;
39208;SDS011;24929;51.982;4.664;2022-08-19T07:50:23;16.10;;;13.32;;
39208;SDS011;24929;51.982;4.664;2022-08-19T07:52:49;15.93;;;13.20;;
39208;SDS011;24929;51.982;4.664;2022-08-19T07:55:15;14.82;;;11.48;;
39208;SDS011;24929;51.982;4.664;2022-08-19T07:57:42;15.43;;;12.88;;
39208;SDS011;24929;51.982;4.664;2022-08-19T08:00:07;26.27;;;13.88;;
39208;SDS011;24929;51.982;4.664;2022-08-19T08:02:33;14.50;;;11.82;;
39208;SDS011;24929;51.982;4.664;2022-08-19T08:04:59;14.73;;;13.07;;
39208;SDS011;24929;51.982;4.664;2022-08-19T08:07:43;19.08;;;12.82;;
39208;SDS011;24929;51.982;4.664;2022-08-19T08:10:27;17.92;;;12.50;;
39208;SDS011;24929;51.982;4.664;2022-08-19T08:12:52;15.30;;;11.80;;
39208;SDS011;24929;51.982;4.664;2022-08-19T08:15:20;15.60;;;12.57;;
39208;SDS011;24929;51.982;4.664;2022-08-19T08:17:46;16.08;;;12.75;;
39208;SDS011;24929;51.982;4.664;2022-08-19T08:20:12;21.77;;;14.93;;
39208;SDS011;24929;51.982;4.664;2022-08-19T08:22:42;15.38;;;12.98;;
39208;SDS011;24929;51.982;4.664;2022-08-19T08:25:27;17.65;;;13.05;;
39208;SDS011;24929;51.982;4.664;2022-08-19T08:27:52;23.20;;;13.70;;
39208;SDS011;24929;51.982;4.664;2022-08-19T08:30:19;18.50;;;13.02;;
39208;SDS011;24929;51.982;4.664;2022-08-19T08:32:46;24.42;;;14.30;;
39208;SDS011;24929;51.982;4.664;2022-08-19T08:35:13;19.17;;;13.27;;
39208;SDS011;24929;51.982;4.664;2022-08-19T08:37:40;16.40;;;13.75;;
39208;SDS011;24929;51.982;4.664;2022-08-19T08:40:07;16.15;;;13.32;;
39208;SDS011;24929;51.982;4.664;2022-08-19T08:42:44;15.93;;;13.13;;
39208;SDS011;24929;51.982;4.664;2022-08-19T08:45:17;23.75;;;12.38;;
39208;SDS011;24929;51.982;4.664;2022-08-19T08:47:44;18.70;;;13.25;;
39208;SDS011;24929;51.982;4.664;2022-08-19T08:53:00;19.63;;;12.88;;
39208;SDS011;24929;51.982;4.664;2022-08-19T08:55:29;20.08;;;12.98;;
39208;SDS011;24929;51.982;4.664;2022-08-19T08:57:58;14.88;;;11.43;;
39208;SDS011;24929;51.982;4.664;2022-08-19T09:00:35;12.07;;;10.27;;
39208;SDS011;24929;51.982;4.664;2022-08-19T09:03:03;16.10;;;11.45;;
39208;SDS011;24929;51.982;4.664;2022-08-19T09:05:56;15.13;;;11.68;;
39208;SDS011;24929;51.982;4.664;2022-08-19T09:16:57;17.27;;;10.57;;
39208;SDS011;24929;51.982;4.664;2022-08-19T09:19:24;13.70;;;9.88;;
39208;SDS011;24929;51.982;4.664;2022-08-19T09:21:50;10.73;;;9.00;;
39208;SDS011;24929;51.982;4.664;2022-08-19T09:24:15;12.35;;;9.82;;
39208;SDS011;24929;51.982;4.664;2022-08-19T09:26:41;11.75;;;8.20;;
39208;SDS011;24929;51.982;4.664;2022-08-19T09:29:08;10.98;;;8.35;;
39208;SDS011;24929;51.982;4.664;2022-08-19T09:31:34;9.55;;;8.57;;
39208;SDS011;24929;51.982;4.664;2022-08-19T09:34:00;11.05;;;7.90;;
39208;SDS011;24929;51.982;4.664;2022-08-19T09:36:28;12.15;;;8.43;;
39208;SDS011;24929;51.982;4.664;2022-08-19T09:38:55;12.88;;;9.40;;
39208;SDS011;24929;51.982;4.664;2022-08-19T09:41:22;9.93;;;7.97;;
39208;SDS011;24929;51.982;4.664;2022-08-19T09:43:50;11.75;;;8.45;;
39208;SDS011;24929;51.982;4.664;2022-08-19T09:46:18;11.77;;;8.02;;
39208;SDS011;24929;51.982;4.664;2022-08-19T09:48:46;9.27;;;7.45;;
39208;SDS011;24929;51.982;4.664;2022-08-19T09:51:15;9.60;;;6.85;;
39208;SDS011;24929;51.982;4.664;2022-08-19T09:53:46;11.15;;;7.60;;
39208;SDS011;24929;51.982;4.664;2022-08-19T09:56:15;10.27;;;7.75;;
39208;SDS011;24929;51.982;4.664;2022-08-19T09:58:41;11.98;;;8.13;;
39208;SDS011;24929;51.982;4.664;2022-08-19T10:01:06;12.38;;;8.10;;
39208;SDS011;24929;51.982;4.664;2022-08-19T10:03:33;11.95;;;7.82;;
39208;SDS011;24929;51.982;4.664;2022-08-19T10:06:01;10.05;;;7.38;;
39208;SDS011;24929;51.982;4.664;2022-08-19T10:08:29;10.95;;;7.97;;
39208;SDS011;24929;51.982;4.664;2022-08-19T10:10:59;8.32;;;7.10;;
39208;SDS011;24929;51.982;4.664;2022-08-19T10:13:27;8.00;;;7.20;;
39208;SDS011;24929;51.982;4.664;2022-08-19T10:15:54;8.38;;;7.55;;
39208;SDS011;24929;51.982;4.664;2022-08-19T10:18:22;9.70;;;7.28;;
39208;SDS011;24929;51.982;4.664;2022-08-19T10:20:49;12.63;;;6.65;;
39208;SDS011;24929;51.982;4.664;2022-08-19T10:23:15;7.65;;;6.85;;
39208;SDS011;24929;51.982;4.664;2022-08-19T10:25:41;8.45;;;5.70;;
39208;SDS011;24929;51.982;4.664;2022-08-19T10:28:09;8.55;;;6.30;;
39208;SDS011;24929;51.982;4.664;2022-08-19T10:30:37;6.38;;;5.25;;
39208;SDS011;24929;51.982;4.664;2022-08-19T10:33:03;5.05;;;4.55;;
39208;SDS011;24929;51.982;4.664;2022-08-19T10:35:29;7.88;;;5.40;;
39208;SDS011;24929;51.982;4.664;2022-08-19T10:37:55;8.27;;;4.47;;
39208;SDS011;24929;51.982;4.664;2022-08-19T10:40:24;10.10;;;4.50;;
39208;SDS011;24929;51.982;4.664;2022-08-19T10:42:51;5.18;;;4.40;;
39208;SDS011;24929;51.982;4.664;2022-08-19T10:45:17;5.43;;;4.85;;
39208;SDS011;24929;51.982;4.664;2022-08-19T10:47:42;6.53;;;3.63;;
39208;SDS011;24929;51.982;4.664;2022-08-19T10:50:08;4.78;;;3.47;;
39208;SDS011;24929;51.982;4.664;2022-08-19T10:52:52;6.28;;;4.47;;
39208;SDS011;24929;51.982;4.664;2022-08-19T10:55:19;8.52;;;3.78;;
39208;SDS011;24929;51.982;4.664;2022-08-19T10:58:09;5.07;;;3.58;;
39208;SDS011;24929;51.982;4.664;2022-08-19T11:00:39;5.38;;;3.95;;
39208;SDS011;24929;51.982;4.664;2022-08-19T11:03:05;4.45;;;2.97;;
39208;SDS011;24929;51.982;4.664;2022-08-19T11:05:30;7.07;;;3.17;;
39208;SDS011;24929;51.982;4.664;2022-08-19T11:07:56;4.03;;;2.92;;
39208;SDS011;24929;51.982;4.664;2022-08-19T11:10:21;4.22;;;2.58;;
39208;SDS011;24929;51.982;4.664;2022-08-19T11:12:48;3.28;;;2.97;;
39208;SDS011;24929;51.982;4.664;2022-08-19T11:15:19;4.03;;;3.33;;
39208;SDS011;24929;51.982;4.664;2022-08-19T11:17:44;3.28;;;2.55;;
39208;SDS011;24929;51.982;4.664;2022-08-19T11:20:13;2.78;;;2.58;;
39208;SDS011;24929;51.982;4.664;2022-08-19T11:22:40;2.08;;;1.88;;
39208;SDS011;24929;51.982;4.664;2022-08-19T11:25:07;3.15;;;2.75;;
39208;SDS011;24929;51.982;4.664;2022-08-19T11:27:33;2.72;;;2.47;;
39208;SDS011;24929;51.982;4.664;2022-08-19T11:30:03;3.40;;;2.70;;
39208;SDS011;24929;51.982;4.664;2022-08-19T11:32:29;2.88;;;2.45;;
39208;SDS011;24929;51.982;4.664;2022-08-19T11:34:54;2.42;;;2.00;;
39208;SDS011;24929;51.982;4.664;2022-08-19T11:37:19;2.50;;;2.28;;
39208;SDS011;24929;51.982;4.664;2022-08-19T11:39:45;3.88;;;2.70;;
39208;SDS011;24929;51.982;4.664;2022-08-19T11:42:10;6.47;;;2.75;;
39208;SDS011;24929;51.982;4.664;2022-08-19T11:44:54;2.85;;;1.88;;
39208;SDS011;24929;51.982;4.664;2022-08-19T11:47:19;3.63;;;1.88;;
39208;SDS011;24929;51.982;4.664;2022-08-19T11:49:45;1.52;;;1.42;;
39208;SDS011;24929;51.982;4.664;2022-08-19T11:52:11;1.45;;;1.35;;
39208;SDS011;24929;51.982;4.664;2022-08-19T11:54:37;1.35;;;1.10;;
39208;SDS011;24929;51.982;4.664;2022-08-19T11:57:03;2.08;;;1.20;;
39208;SDS011;24929;51.982;4.664;2022-08-19T11:59:28;1.85;;;1.60;;
39208;SDS011;24929;51.982;4.664;2022-08-19T12:01:54;3.30;;;1.38;;
39208;SDS011;24929;51.982;4.664;2022-08-19T12:04:20;1.63;;;1.25;;
39208;SDS011;24929;51.982;4.664;2022-08-19T12:06:46;1.65;;;1.25;;
39208;SDS011;24929;51.982;4.664;2022-08-19T12:09:12;3.30;;;1.25;;
39208;SDS011;24929;51.982;4.664;2022-08-19T12:11:39;2.92;;;1.20;;
39208;SDS011;24929;51.982;4.664;2022-08-19T12:14:05;3.88;;;1.35;;
39208;SDS011;24929;51.982;4.664;2022-08-19T12:16:33;1.73;;;1.15;;
39208;SDS011;24929;51.982;4.664;2022-08-19T12:18:59;0.85;;;0.85;;
39208;SDS011;24929;51.982;4.664;2022-08-19T12:21:29;2.05;;;1.13;;
39208;SDS011;24929;51.982;4.664;2022-08-19T12:23:57;0.80;;;0.80;;
39208;SDS011;24929;51.982;4.664;2022-08-19T12:26:24;1.05;;;0.80;;
39208;SDS011;24929;51.982;4.664;2022-08-19T12:28:50;1.10;;;0.90;;
39208;SDS011;24929;51.982;4.664;2022-08-19T12:31:16;1.95;;;1.33;;
39208;SDS011;24929;51.982;4.664;2022-08-19T12:33:42;1.30;;;1.20;;
39208;SDS011;24929;51.982;4.664;2022-08-19T12:36:09;1.60;;;1.02;;
39208;SDS011;24929;51.982;4.664;2022-08-19T12:38:37;1.10;;;1.00;;
39208;SDS011;24929;51.982;4.664;2022-08-19T12:41:03;1.15;;;1.00;;
39208;SDS011;24929;51.982;4.664;2022-08-19T12:43:32;1.30;;;1.10;;
39208;SDS011;24929;51.982;4.664;2022-08-19T12:45:59;0.70;;;0.70;;
39208;SDS011;24929;51.982;4.664;2022-08-19T12:48:24;1.30;;;1.13;;
39208;SDS011;24929;51.982;4.664;2022-08-19T12:50:50;1.50;;;1.40;;
39208;SDS011;24929;51.982;4.664;2022-08-19T12:53:15;2.50;;;1.73;;
39208;SDS011;24929;51.982;4.664;2022-08-19T12:55:41;3.22;;;2.03;;
39208;SDS011;24929;51.982;4.664;2022-08-19T12:58:07;3.10;;;1.88;;
39208;SDS011;24929;51.982;4.664;2022-08-19T13:00:33;2.75;;;2.10;;
39208;SDS011;24929;51.982;4.664;2022-08-19T13:02:58;2.50;;;1.40;;
39208;SDS011;24929;51.982;4.664;2022-08-19T13:05:26;4.22;;;2.30;;
39208;SDS011;24929;51.982;4.664;2022-08-19T13:07:54;3.33;;;2.20;;
39208;SDS011;24929;51.982;4.664;2022-08-19T13:10:21;1.45;;;1.35;;
39208;SDS011;24929;51.982;4.664;2022-08-19T13:12:50;2.72;;;2.05;;
39208;SDS011;24929;51.982;4.664;2022-08-19T13:15:18;4.13;;;3.65;;
39208;SDS011;24929;51.982;4.664;2022-08-19T13:17:45;4.32;;;3.63;;
39208;SDS011;24929;51.982;4.664;2022-08-19T13:20:14;4.75;;;3.50;;
39208;SDS011;24929;51.982;4.664;2022-08-19T13:22:40;4.93;;;3.88;;
39208;SDS011;24929;51.982;4.664;2022-08-19T13:25:06;3.67;;;3.17;;
39208;SDS011;24929;51.982;4.664;2022-08-19T13:27:32;5.30;;;4.28;;
39208;SDS011;24929;51.982;4.664;2022-08-19T13:29:58;5.70;;;3.55;;
39208;SDS011;24929;51.982;4.664;2022-08-19T13:32:42;4.03;;;2.92;;
39208;SDS011;24929;51.982;4.664;2022-08-19T13:35:26;5.57;;;3.00;;
39208;SDS011;24929;51.982;4.664;2022-08-19T13:37:52;3.67;;;3.00;;
39208;SDS011;24929;51.982;4.664;2022-08-19T13:40:22;4.10;;;3.25;;
39208;SDS011;24929;51.982;4.664;2022-08-19T13:42:52;4.60;;;3.42;;
39208;SDS011;24929;51.982;4.664;2022-08-19T13:45:20;7.72;;;4.07;;
39208;SDS011;24929;51.982;4.664;2022-08-19T13:47:51;5.13;;;4.20;;
39208;SDS011;24929;51.982;4.664;2022-08-19T13:50:20;5.37;;;4.83;;
39208;SDS011;24929;51.982;4.664;2022-08-19T13:52:47;6.95;;;4.32;;
39208;SDS011;24929;51.982;4.664;2022-08-19T13:55:13;4.70;;;4.13;;
39208;SDS011;24929;51.982;4.664;2022-08-19T13:57:40;5.38;;;4.30;;
39208;SDS011;24929;51.982;4.664;2022-08-19T14:00:11;6.57;;;4.35;;
39208;SDS011;24929;51.982;4.664;2022-08-19T14:02:40;6.57;;;5.30;;
39208;SDS011;24929;51.982;4.664;2022-08-19T14:05:07;8.95;;;5.35;;
39208;SDS011;24929;51.982;4.664;2022-08-19T14:07:36;5.38;;;4.68;;
39208;SDS011;24929;51.982;4.664;2022-08-19T14:10:02;6.03;;;4.03;;
39208;SDS011;24929;51.982;4.664;2022-08-19T14:12:29;4.95;;;4.35;;
39208;SDS011;24929;51.982;4.664;2022-08-19T14:14:56;6.47;;;4.55;;
39208;SDS011;24929;51.982;4.664;2022-08-19T14:17:22;8.20;;;4.78;;
39208;SDS011;24929;51.982;4.664;2022-08-19T14:19:47;5.05;;;4.00;;
39208;SDS011;24929;51.982;4.664;2022-08-19T14:22:13;5.90;;;4.47;;
39208;SDS011;24929;51.982;4.664;2022-08-19T14:24:38;9.32;;;5.70;;
39208;SDS011;24929;51.982;4.664;2022-08-19T14:27:05;5.38;;;4.22;;
39208;SDS011;24929;51.982;4.664;2022-08-19T14:29:31;6.88;;;3.90;;
39208;SDS011;24929;51.982;4.664;2022-08-19T14:31:56;5.93;;;4.53;;
39208;SDS011;24929;51.982;4.664;2022-08-19T14:34:24;5.85;;;3.97;;
39208;SDS011;24929;51.982;4.664;2022-08-19T14:36:50;4.78;;;3.50;;
39208;SDS011;24929;51.982;4.664;2022-08-19T14:39:15;6.20;;;4.22;;
39208;SDS011;24929;51.982;4.664;2022-08-19T14:41:41;7.32;;;3.80;;
39208;SDS011;24929;51.982;4.664;2022-08-19T14:44:10;6.03;;;4.53;;
39208;SDS011;24929;51.982;4.664;2022-08-19T14:46:37;7.85;;;4.65;;
39208;SDS011;24929;51.982;4.664;2022-08-19T14:49:03;4.13;;;3.65;;
39208;SDS011;24929;51.982;4.664;2022-08-19T14:51:29;4.60;;;3.35;;
39208;SDS011;24929;51.982;4.664;2022-08-19T14:53:55;3.67;;;3.35;;
39208;SDS011;24929;51.982;4.664;2022-08-19T14:56:23;4.30;;;3.10;;
39208;SDS011;24929;51.982;4.664;2022-08-19T14:58:50;2.50;;;1.30;;